createdAt,value
2017-09-29T00:01:58.435Z,92.80
2017-09-29T00:05:09.317Z,93.10
2017-09-29T00:08:19.667Z,93.10
2017-09-29T00:11:29.850Z,92.80
2017-09-29T00:14:39.757Z,92.80
2017-09-29T00:17:49.692Z,93.00
2017-09-29T00:21:00.251Z,92.80
2017-09-29T00:24:11.589Z,92.80
2017-09-29T00:27:21.885Z,92.70
2017-09-29T00:30:31.965Z,92.80
2017-09-29T00:33:41.879Z,93.00
2017-09-29T00:36:51.425Z,93.20
2017-09-29T00:40:02.398Z,93.00
2017-09-29T00:43:12.327Z,93.00
2017-09-29T00:46:22.536Z,92.90
2017-09-29T00:49:32.522Z,92.90
2017-09-29T00:52:42.622Z,93.00
2017-09-29T00:55:52.603Z,92.70
2017-09-29T00:59:02.597Z,92.80
2017-09-29T01:02:12.817Z,92.70
2017-09-29T01:05:22.959Z,92.50
2017-09-29T01:08:33.080Z,92.20
2017-09-29T01:11:42.995Z,92.40
2017-09-29T01:14:53.789Z,92.60
2017-09-29T01:18:04.116Z,92.60
2017-09-29T01:21:13.893Z,92.40
2017-09-29T01:24:23.548Z,92.60
2017-09-29T01:27:34.489Z,93.00
2017-09-29T01:30:44.304Z,92.90
2017-09-29T01:33:54.309Z,92.90
2017-09-29T01:37:04.269Z,92.90
2017-09-29T01:40:14.555Z,92.80
2017-09-29T01:43:24.085Z,92.70
2017-09-29T01:46:34.229Z,92.60
2017-09-29T01:49:44.298Z,93.40
2017-09-29T01:52:54.759Z,93.00
2017-09-29T01:56:04.638Z,93.80
2017-09-29T01:59:15.271Z,93.70
2017-09-29T02:02:24.877Z,93.70
2017-09-29T02:05:35.513Z,93.90
2017-09-29T02:08:45.890Z,93.80
2017-09-29T02:11:55.814Z,94.10
2017-09-29T02:15:05.925Z,94.10
2017-09-29T02:18:16.897Z,94.00
2017-09-29T02:21:26.707Z,94.30
2017-09-29T02:24:36.224Z,94.20
2017-09-29T02:27:46.425Z,94.10
2017-09-29T02:30:56.247Z,94.30
2017-09-29T02:34:06.969Z,94.40
2017-09-29T02:37:17.348Z,93.90
2017-09-29T02:40:29.110Z,93.90
2017-09-29T02:43:39.208Z,94.20
2017-09-29T02:50:00.102Z,94.10
2017-09-29T02:53:09.885Z,94.20
2017-09-29T02:56:20.337Z,94.20
2017-09-29T02:59:31.073Z,94.00
2017-09-29T03:02:43.827Z,94.30
2017-09-29T03:05:53.940Z,94.40
2017-09-29T03:09:03.733Z,94.40
2017-09-29T03:12:15.062Z,94.40
2017-09-29T03:15:25.457Z,94.40
2017-09-29T03:18:36.885Z,94.10
2017-09-29T03:21:48.299Z,94.50
2017-09-29T03:28:09.673Z,94.40
2017-09-29T03:31:20.257Z,94.40
2017-09-29T03:34:30.510Z,94.10
2017-09-29T03:37:40.796Z,94.20
2017-09-29T03:40:51.803Z,94.00
2017-09-29T03:44:02.009Z,94.00
2017-09-29T03:47:12.161Z,94.00
2017-09-29T03:50:24.404Z,94.00
2017-09-29T03:53:34.954Z,93.90
2017-09-29T03:56:46.808Z,93.80
2017-09-29T03:59:56.869Z,93.90
2017-09-29T04:03:07.668Z,94.10
2017-09-29T04:06:18.024Z,94.10
2017-09-29T04:09:28.441Z,94.20
2017-09-29T04:12:38.487Z,94.20
2017-09-29T04:15:48.801Z,94.40
2017-09-29T04:18:59.375Z,94.40
2017-09-29T04:22:09.743Z,94.10
2017-09-29T04:25:19.715Z,94.30
2017-09-29T04:28:29.826Z,94.10
2017-09-29T04:31:40.523Z,94.20
2017-09-29T04:34:51.389Z,94.30
2017-09-29T04:38:01.522Z,94.30
2017-09-29T04:41:12.096Z,94.20
2017-09-29T04:44:22.044Z,94.20
2017-09-29T04:47:32.145Z,94.20
2017-09-29T04:50:42.174Z,94.00
2017-09-29T04:53:52.086Z,94.00
2017-09-29T04:57:02.006Z,94.20
2017-09-29T05:00:11.878Z,94.50
2017-09-29T05:03:22.626Z,94.20
2017-09-29T05:06:32.754Z,94.20
2017-09-29T05:09:42.943Z,94.30
2017-09-29T05:12:54.413Z,94.20
2017-09-29T05:16:04.526Z,94.40
2017-09-29T05:19:14.587Z,94.20
2017-09-29T05:22:24.599Z,94.10
2017-09-29T05:25:34.517Z,94.20
2017-09-29T05:28:44.548Z,94.10
2017-09-29T05:31:55.112Z,94.00
2017-09-29T05:35:05.487Z,94.00
2017-09-29T05:38:16.171Z,94.00
2017-09-29T05:41:26.312Z,94.00
2017-09-29T05:44:36.270Z,94.50
2017-09-29T05:47:46.629Z,94.50
2017-09-29T05:50:56.540Z,94.30
2017-09-29T05:54:07.201Z,94.70
2017-09-29T05:57:17.324Z,94.70
2017-09-29T06:00:27.179Z,94.70
2017-09-29T06:03:38.454Z,94.60
2017-09-29T06:06:48.450Z,94.80
2017-09-29T06:09:58.393Z,94.80
2017-09-29T06:13:09.500Z,94.50
2017-09-29T06:16:19.343Z,94.80
2017-09-29T06:19:29.454Z,94.50
2017-09-29T06:22:40.210Z,94.60
2017-09-29T06:25:50.459Z,94.60
2017-09-29T06:29:00.547Z,94.60
2017-09-29T06:32:11.321Z,94.30
2017-09-29T06:35:21.387Z,94.20
2017-09-29T06:38:31.292Z,93.80
2017-09-29T06:41:42.002Z,93.90
2017-09-29T06:44:52.825Z,94.00
2017-09-29T06:48:02.933Z,93.90
2017-09-29T06:51:12.776Z,94.00
2017-09-29T06:54:23.657Z,94.10
2017-09-29T06:57:34.822Z,93.80
2017-09-29T07:00:44.773Z,94.00
2017-09-29T07:03:55.389Z,93.60
2017-09-29T07:07:05.265Z,93.70
2017-09-29T07:10:15.628Z,93.40
2017-09-29T07:13:26.138Z,93.20
2017-09-29T07:16:37.034Z,93.10
2017-09-29T07:19:47.435Z,93.00
2017-09-29T07:22:58.021Z,92.70
2017-09-29T07:26:09.630Z,93.00
2017-09-29T07:29:22.741Z,92.60
2017-09-29T07:32:34.044Z,92.30
2017-09-29T07:35:44.543Z,92.30
2017-09-29T07:38:54.787Z,92.20
2017-09-29T07:42:05.414Z,92.00
2017-09-29T07:45:16.417Z,92.00
2017-09-29T07:48:26.446Z,92.10
2017-09-29T07:51:36.989Z,91.70
2017-09-29T07:54:47.277Z,91.60
2017-09-29T07:57:57.411Z,91.60
2017-09-29T08:01:07.350Z,91.30
2017-09-29T08:04:18.254Z,91.10
2017-09-29T08:07:28.278Z,91.10
2017-09-29T08:10:38.364Z,90.70
2017-09-29T08:13:48.773Z,90.50
2017-09-29T08:16:58.860Z,90.70
2017-09-29T08:20:09.573Z,89.50
2017-09-29T08:23:19.718Z,90.00
2017-09-29T08:26:29.705Z,90.00
2017-09-29T08:29:39.526Z,90.00
2017-09-29T08:32:51.267Z,90.20
2017-09-29T08:36:01.599Z,89.60
2017-09-29T08:39:11.759Z,89.60
2017-09-29T08:42:22.496Z,90.00
2017-09-29T08:45:32.416Z,90.00
2017-09-29T08:48:43.287Z,89.20
2017-09-29T08:51:53.772Z,89.20
2017-09-29T08:55:03.664Z,88.20
2017-09-29T08:58:13.984Z,88.10
2017-09-29T09:01:24.720Z,88.40
2017-09-29T09:04:34.633Z,88.80
2017-09-29T09:07:44.818Z,88.00
2017-09-29T09:10:54.850Z,88.60
2017-09-29T09:14:04.949Z,88.60
2017-09-29T09:17:15.236Z,87.70
2017-09-29T09:20:26.040Z,87.70
2017-09-29T09:23:36.507Z,86.90
2017-09-29T09:26:47.104Z,86.70
2017-09-29T09:29:57.221Z,87.20
2017-09-29T09:33:07.753Z,87.70
2017-09-29T09:36:18.721Z,87.20
2017-09-29T09:39:29.116Z,87.20
2017-09-29T09:42:39.052Z,86.10
2017-09-29T09:45:48.951Z,86.70
2017-09-29T09:48:58.693Z,86.20
2017-09-29T09:52:08.664Z,86.80
2017-09-29T09:55:19.010Z,84.60
2017-09-29T09:58:29.416Z,84.10
2017-09-29T10:01:40.104Z,85.50
2017-09-29T10:04:50.072Z,85.50
2017-09-29T10:08:00.341Z,84.00
2017-09-29T10:11:10.451Z,84.40
2017-09-29T10:14:20.681Z,85.40
2017-09-29T10:17:30.957Z,83.50
2017-09-29T10:20:40.922Z,82.90
2017-09-29T10:27:02.062Z,83.10
2017-09-29T10:30:11.442Z,83.40
2017-09-29T10:33:21.949Z,81.20
2017-09-29T10:36:31.997Z,80.70
2017-09-29T10:39:42.076Z,85.60
2017-09-29T10:42:52.142Z,89.70
2017-09-29T10:46:02.056Z,86.00
2017-09-29T10:49:12.775Z,79.70
2017-09-29T10:52:23.206Z,79.60
2017-09-29T10:55:33.312Z,91.70
2017-09-29T10:58:43.135Z,91.70
2017-09-29T11:01:53.211Z,79.70
2017-09-29T11:05:03.219Z,80.50
2017-09-29T11:08:13.176Z,79.60
2017-09-29T11:11:23.104Z,81.00
2017-09-29T11:14:33.039Z,79.20
2017-09-29T11:17:42.812Z,81.30
2017-09-29T11:20:52.918Z,78.20
2017-09-29T11:24:03.440Z,79.00
2017-09-29T11:27:13.624Z,78.80
2017-09-29T11:30:23.551Z,77.80
2017-09-29T11:33:33.401Z,76.10
2017-09-29T11:36:43.486Z,76.50
2017-09-29T11:39:53.752Z,76.80
2017-09-29T11:43:03.759Z,75.60
2017-09-29T11:46:13.706Z,75.40
2017-09-29T11:49:23.774Z,76.20
2017-09-29T11:52:34.256Z,76.70
2017-09-29T11:55:44.487Z,76.00
2017-09-29T11:58:54.560Z,75.70
2017-09-29T12:02:04.451Z,75.20
2017-09-29T12:05:15.242Z,73.10
2017-09-29T12:08:29.136Z,75.40
2017-09-29T12:11:39.412Z,74.20
2017-09-29T12:14:49.401Z,73.50
2017-09-29T12:17:59.439Z,71.60
2017-09-29T12:21:09.604Z,71.90
2017-09-29T12:24:19.558Z,71.60
2017-09-29T12:27:29.282Z,72.30
2017-09-29T12:30:39.456Z,70.00
2017-09-29T12:33:50.175Z,70.70
2017-09-29T12:37:00.368Z,70.50
2017-09-29T12:40:10.184Z,72.30
2017-09-29T12:43:20.601Z,72.20
2017-09-29T12:46:30.383Z,71.70
2017-09-29T12:49:47.820Z,71.80
2017-09-29T12:52:58.305Z,71.70
2017-09-29T12:56:08.548Z,72.80
2017-09-29T12:59:18.645Z,72.70
2017-09-29T13:02:28.594Z,70.40
2017-09-29T13:05:38.984Z,67.10
2017-09-29T13:08:49.910Z,69.50
2017-09-29T13:12:04.049Z,69.50
2017-09-29T13:15:15.036Z,70.10
2017-09-29T13:18:25.381Z,70.30
2017-09-29T13:21:35.388Z,66.90
2017-09-29T13:24:46.201Z,67.40
2017-09-29T13:27:56.638Z,67.90
2017-09-29T13:31:06.422Z,67.90
2017-09-29T13:34:16.373Z,66.50
2017-09-29T13:37:27.096Z,68.10
2017-09-29T13:40:37.363Z,68.00
2017-09-29T13:43:47.345Z,68.30
2017-09-29T13:46:56.952Z,64.60
2017-09-29T13:50:07.114Z,65.20
2017-09-29T13:53:17.016Z,66.70
2017-09-29T13:56:26.910Z,67.20
2017-09-29T13:59:36.992Z,67.20
2017-09-29T14:02:47.135Z,67.20
2017-09-29T14:05:56.969Z,66.60
2017-09-29T14:09:06.829Z,67.70
2017-09-29T14:12:18.140Z,67.70
2017-09-29T14:15:28.838Z,67.80
2017-09-29T14:18:39.869Z,65.60
2017-09-29T14:21:49.990Z,65.50
2017-09-29T14:25:02.178Z,65.30
2017-09-29T14:28:13.207Z,65.00
2017-09-29T14:31:23.776Z,65.80
2017-09-29T14:34:33.841Z,65.50
2017-09-29T14:37:44.490Z,66.40
2017-09-29T14:40:54.455Z,65.00
2017-09-29T14:44:05.078Z,66.90
2017-09-29T14:47:15.033Z,65.30
2017-09-29T14:50:26.700Z,63.80
2017-09-29T14:53:36.808Z,63.70
2017-09-29T14:56:46.611Z,64.80
2017-09-29T14:59:56.790Z,64.00
2017-09-29T15:03:06.549Z,64.10
2017-09-29T15:06:16.300Z,65.90
2017-09-29T15:09:26.046Z,63.50
2017-09-29T15:12:36.160Z,65.00
2017-09-29T15:15:46.824Z,62.90
2017-09-29T15:18:56.600Z,64.10
2017-09-29T15:22:06.682Z,64.60
2017-09-29T15:25:16.518Z,65.30
2017-09-29T15:28:26.697Z,63.20
2017-09-29T15:31:36.424Z,64.40
2017-09-29T15:34:46.433Z,65.50
2017-09-29T15:37:56.439Z,66.60
2017-09-29T15:41:06.296Z,65.20
2017-09-29T15:44:16.246Z,67.10
2017-09-29T15:47:26.249Z,66.10
2017-09-29T15:50:36.091Z,67.00
2017-09-29T15:53:46.624Z,67.70
2017-09-29T15:56:57.016Z,67.70
2017-09-29T16:00:06.898Z,68.60
2017-09-29T16:03:16.609Z,69.70
2017-09-29T16:06:27.811Z,70.10
2017-09-29T16:09:38.205Z,69.50
2017-09-29T16:12:48.165Z,69.70
2017-09-29T16:15:58.196Z,71.60
2017-09-29T16:19:10.275Z,72.30
2017-09-29T16:22:22.525Z,72.30
2017-09-29T16:25:34.112Z,71.90
2017-09-29T16:28:44.756Z,73.00
2017-09-29T16:31:55.226Z,73.90
2017-09-29T16:35:05.528Z,74.40
2017-09-29T16:38:15.936Z,73.10
2017-09-29T16:41:26.090Z,73.90
2017-09-29T16:44:36.360Z,73.30
2017-09-29T16:47:46.808Z,73.00
2017-09-29T16:50:56.780Z,73.00
2017-09-29T16:54:06.546Z,74.10
2017-09-29T16:57:16.508Z,74.70
2017-09-29T17:00:26.399Z,74.60
2017-09-29T17:03:36.236Z,75.40
2017-09-29T17:06:46.605Z,75.80
2017-09-29T17:09:57.983Z,77.00
2017-09-29T17:13:08.263Z,77.00
2017-09-29T17:16:18.384Z,77.10
2017-09-29T17:19:28.551Z,77.80
2017-09-29T17:22:38.516Z,78.40
2017-09-29T17:25:48.394Z,78.10
2017-09-29T17:28:58.453Z,78.10
2017-09-29T17:32:08.563Z,77.30
2017-09-29T17:35:18.696Z,78.00
2017-09-29T17:38:29.518Z,78.60
2017-09-29T17:41:39.768Z,78.30
2017-09-29T17:44:50.033Z,79.20
2017-09-29T17:48:02.875Z,79.50
2017-09-29T17:51:14.478Z,80.80
2017-09-29T17:54:25.439Z,80.70
2017-09-29T17:57:36.588Z,80.80
2017-09-29T18:00:47.408Z,81.20
2017-09-29T18:03:57.654Z,81.90
2017-09-29T18:07:07.895Z,82.10
2017-09-29T18:10:19.204Z,81.90
2017-09-29T18:13:30.362Z,82.60
2017-09-29T18:16:41.292Z,83.10
2017-09-29T18:19:52.296Z,83.00
2017-09-29T18:23:04.186Z,83.90
2017-09-29T18:26:14.139Z,83.80
2017-09-29T18:29:25.012Z,83.90
2017-09-29T18:32:35.145Z,84.00
2017-09-29T18:35:46.146Z,84.30
2017-09-29T18:38:57.150Z,83.90
2017-09-29T18:42:08.436Z,84.00
2017-09-29T18:45:19.548Z,83.90
2017-09-29T18:48:30.061Z,83.80
2017-09-29T18:51:40.971Z,83.90
2017-09-29T18:54:50.968Z,84.10
2017-09-29T18:58:02.601Z,84.20
2017-09-29T19:01:13.505Z,84.00
2017-09-29T19:04:23.870Z,84.20
2017-09-29T19:07:34.117Z,84.40
2017-09-29T19:10:44.970Z,84.00
2017-09-29T19:13:56.168Z,84.40
2017-09-29T19:17:06.947Z,83.60
2017-09-29T19:20:17.686Z,83.90
2017-09-29T19:23:28.041Z,83.90
2017-09-29T19:26:38.187Z,84.30
2017-09-29T19:29:48.961Z,84.30
2017-09-29T19:32:59.205Z,84.60
2017-09-29T19:36:12.440Z,84.10
2017-09-29T19:39:28.853Z,84.40
2017-09-29T19:42:40.156Z,84.30
2017-09-29T19:45:53.910Z,85.20
2017-09-29T19:49:04.987Z,85.30
2017-09-29T19:52:15.309Z,85.30
2017-09-29T19:55:26.943Z,85.30
2017-09-29T19:58:37.062Z,85.20
2017-09-29T20:01:47.894Z,85.20
2017-09-29T20:04:58.246Z,85.20
2017-09-29T20:08:08.318Z,84.70
2017-09-29T20:11:18.574Z,85.30
2017-09-29T20:14:28.596Z,85.80
2017-09-29T20:17:39.067Z,86.10
2017-09-29T20:20:49.694Z,86.20
2017-09-29T20:23:59.706Z,85.70
2017-09-29T20:27:10.547Z,86.40
2017-09-29T20:30:20.534Z,86.30
2017-09-29T20:33:30.626Z,86.50
2017-09-29T20:36:41.315Z,86.10
2017-09-29T20:39:51.519Z,86.60
2017-09-29T20:43:02.204Z,87.10
2017-09-29T20:46:12.972Z,87.10
2017-09-29T20:49:23.625Z,87.00
2017-09-29T20:52:34.186Z,86.70
2017-09-29T20:55:44.171Z,87.10
2017-09-29T20:58:54.308Z,86.40
2017-09-29T21:02:04.750Z,86.70
2017-09-29T21:05:15.050Z,86.70
2017-09-29T21:08:40.562Z,86.80
2017-09-29T21:11:57.550Z,87.00
2017-09-29T21:18:49.446Z,87.00
2017-09-29T21:22:00.474Z,87.00
2017-09-29T21:25:10.508Z,87.00
2017-09-29T21:28:22.330Z,87.50
2017-09-29T21:31:32.478Z,87.40
2017-09-29T21:34:43.702Z,87.70
2017-09-29T21:37:54.270Z,87.80
2017-09-29T21:41:05.136Z,87.80
2017-09-29T21:44:17.728Z,88.20
2017-09-29T21:47:30.242Z,87.80
2017-09-29T21:50:43.485Z,88.00
2017-09-29T21:53:54.488Z,87.50
2017-09-29T21:57:04.818Z,88.00
2017-09-29T22:00:23.412Z,87.80
2017-09-29T22:03:34.541Z,87.70
2017-09-29T22:06:45.628Z,87.90
2017-09-29T22:09:56.597Z,87.70
2017-09-29T22:13:07.530Z,87.90
2017-09-29T22:16:18.458Z,87.80
2017-09-29T22:19:29.048Z,87.90
2017-09-29T22:22:39.710Z,87.90
2017-09-29T22:25:51.375Z,87.80
2017-09-29T22:29:01.624Z,87.70
2017-09-29T22:32:11.514Z,87.60
2017-09-29T22:35:22.346Z,87.90
2017-09-29T22:38:33.389Z,88.20
2017-09-29T22:41:44.252Z,88.30
2017-09-29T22:44:55.254Z,88.40
2017-09-29T22:48:05.864Z,88.50
2017-09-29T22:51:16.134Z,87.50
2017-09-29T22:54:27.634Z,88.10
2017-09-29T22:57:38.577Z,87.50
2017-09-29T23:00:50.334Z,87.30
2017-09-29T23:04:00.759Z,87.30
2017-09-29T23:07:12.541Z,86.90
2017-09-29T23:10:23.462Z,86.90
2017-09-29T23:13:34.098Z,87.50
2017-09-29T23:16:44.886Z,87.40
2017-09-29T23:19:55.694Z,86.50
2017-09-29T23:23:05.796Z,86.50
2017-09-29T23:26:16.369Z,87.80
2017-09-29T23:29:27.137Z,87.70
2017-09-29T23:32:37.343Z,86.70
2017-09-29T23:35:47.367Z,86.50
2017-09-29T23:38:57.225Z,87.50
2017-09-29T23:42:07.379Z,87.30
2017-09-29T23:45:18.121Z,87.20
2017-09-29T23:48:29.121Z,87.20
2017-09-29T23:51:39.725Z,86.50
2017-09-29T23:54:51.317Z,86.40
2017-09-29T23:58:01.765Z,86.40
